Time;durP1;ratioP1;P1;durP2;ratioP2;P2;SDS_P1;SDS_P2;PMS_P1;PMS_P2;Temp;Humidity;BMP_temperature;BMP_pressure;BME280_temperature;BME280_humidity;BME280_pressure;Samples;Min_cycle;Max_cycle;Signal;HPM_P1;HPM_P2
2021/12/24 00:01:02;;;;;;;21.63;11.82;;;8.40;99.90;;;;;;5113867;28;20210;-51
2021/12/24 00:03:28;;;;;;;23.70;12.45;;;8.30;99.90;;;;;;5114269;28;20200;-54
2021/12/24 00:05:53;;;;;;;21.33;11.23;;;8.30;99.90;;;;;;5113966;28;20199;-53
2021/12/24 00:08:19;;;;;;;18.90;10.73;;;8.30;99.90;;;;;;5113595;28;20191;-54
2021/12/24 00:10:48;;;;;;;20.20;11.60;;;8.30;99.90;;;;;;5113313;28;20207;-54
2021/12/24 00:13:15;;;;;;;18.98;12.57;;;8.30;99.90;;;;;;5113719;28;20522;-54
2021/12/24 00:15:52;;;;;;;24.45;12.75;;;8.30;99.90;;;;;;5113713;28;20196;-54
2021/12/24 00:18:29;;;;;;;21.52;10.50;;;8.30;99.90;;;;;;5113371;28;20283;-54
2021/12/24 00:37:16;;;;;;;23.50;13.85;;;8.20;99.90;;;;;;5113170;28;20195;-54
2021/12/24 00:39:53;;;;;;;18.58;12.48;;;8.20;99.90;;;;;;5113317;28;20180;-52
2021/12/24 00:42:19;;;;;;;25.80;13.73;;;8.20;99.90;;;;;;5112964;28;20527;-54
2021/12/24 00:44:44;;;;;;;17.00;10.45;;;8.20;99.90;;;;;;5113290;28;20164;-54
2021/12/24 00:47:10;;;;;;;18.10;10.27;;;8.30;99.90;;;;;;5113012;28;20689;-53
2021/12/24 00:49:35;;;;;;;18.05;10.70;;;8.30;99.90;;;;;;5112976;28;20217;-53
2021/12/24 00:52:18;;;;;;;19.70;12.75;;;8.30;99.90;;;;;;5113198;28;20173;-53
2021/12/24 00:55:06;;;;;;;19.17;13.10;;;8.30;99.90;;;;;;5113152;28;20243;-53
2021/12/24 00:57:33;;;;;;;16.67;10.98;;;8.30;99.90;;;;;;5113022;28;20265;-54
2021/12/24 00:59:59;;;;;;;14.68;10.32;;;8.30;99.90;;;;;;5113195;28;20187;-54
2021/12/24 01:02:25;;;;;;;20.52;13.07;;;8.30;99.90;;;;;;5113312;28;20628;-54
2021/12/24 01:04:50;;;;;;;16.13;10.27;;;8.30;99.90;;;;;;5112286;28;20174;-54
2021/12/24 01:07:16;;;;;;;17.70;11.48;;;8.30;99.90;;;;;;5112484;28;20211;-54
2021/12/24 01:09:42;;;;;;;17.27;11.15;;;8.30;99.90;;;;;;5112625;28;20210;-54
2021/12/24 01:12:08;;;;;;;14.40;8.73;;;8.30;99.90;;;;;;5112434;28;20220;-53
2021/12/24 01:14:33;;;;;;;19.08;11.85;;;8.30;99.90;;;;;;5112561;28;20632;-53
2021/12/24 01:17:17;;;;;;;18.25;12.35;;;8.30;99.90;;;;;;5112758;28;20196;-51
2021/12/24 01:19:46;;;;;;;20.35;13.63;;;8.30;99.90;;;;;;5094347;28;20271;-53
2021/12/24 01:24:58;;;;;;;13.63;9.02;;;8.30;99.90;;;;;;5112849;28;20168;-54
2021/12/24 01:38:21;;;;;;;18.45;11.68;;;8.40;99.90;;;;;;5083218;28;20685;-54
2021/12/24 01:41:06;;;;;;;18.55;10.52;;;8.50;99.90;;;;;;5112541;28;20211;-54
2021/12/24 01:43:31;;;;;;;20.55;11.88;;;8.50;99.90;;;;;;5112254;28;20636;-53
2021/12/24 01:45:59;;;;;;;18.55;11.07;;;8.50;99.90;;;;;;5112546;28;20180;-54
2021/12/24 01:48:24;;;;;;;14.77;10.10;;;8.50;99.90;;;;;;5112758;28;20181;-54
2021/12/24 01:50:52;;;;;;;22.17;10.73;;;8.50;99.90;;;;;;5112236;28;20165;-54
2021/12/24 01:53:21;;;;;;;17.73;11.18;;;8.60;99.90;;;;;;5112362;28;20211;-54
2021/12/24 01:55:48;;;;;;;19.42;10.90;;;8.60;99.90;;;;;;5112313;28;20197;-54
2021/12/24 01:58:21;;;;;;;13.48;10.40;;;8.60;99.90;;;;;;5112268;28;20209;-54
2021/12/24 02:00:50;;;;;;;15.75;11.18;;;8.60;99.90;;;;;;5112077;28;20157;-53
2021/12/24 02:03:16;;;;;;;19.35;11.60;;;8.60;99.90;;;;;;5112328;28;20203;-53
2021/12/24 02:05:43;;;;;;;20.17;11.32;;;8.60;99.90;;;;;;5112157;28;20195;-54
2021/12/24 02:08:10;;;;;;;15.50;10.05;;;8.60;99.90;;;;;;5112037;28;20184;-53
2021/12/24 02:10:36;;;;;;;13.35;9.55;;;8.70;99.90;;;;;;5112067;28;20562;-53
2021/12/24 02:13:02;;;;;;;19.58;11.70;;;8.70;99.90;;;;;;5112267;28;20586;-53
2021/12/24 02:15:44;;;;;;;17.83;11.93;;;8.70;99.90;;;;;;5112253;28;20188;-52
2021/12/24 02:29:08;;;;;;;15.15;9.57;;;8.70;99.90;;;;;;5115718;28;20175;-53
2021/12/24 02:31:34;;;;;;;18.40;11.52;;;8.80;99.90;;;;;;5115180;28;20161;-53
2021/12/24 02:34:00;;;;;;;15.60;10.80;;;8.70;99.90;;;;;;5115628;28;20632;-52
2021/12/24 02:36:28;;;;;;;20.88;11.70;;;8.70;99.90;;;;;;5115804;28;20165;-53
2021/12/24 02:38:53;;;;;;;17.67;10.95;;;8.80;99.90;;;;;;5097427;28;20704;-53
2021/12/24 02:41:20;;;;;;;20.90;11.35;;;8.70;99.90;;;;;;5115513;28;20161;-53
2021/12/24 02:43:47;;;;;;;16.15;10.68;;;8.80;99.90;;;;;;5115390;28;20177;-54
2021/12/24 02:46:25;;;;;;;15.23;9.45;;;8.70;99.90;;;;;;5115665;28;20177;-53
2021/12/24 02:54:06;;;;;;;16.38;9.82;;;8.70;99.90;;;;;;5115456;28;20218;-54
2021/12/24 02:56:36;;;;;;;12.90;8.48;;;8.70;99.90;;;;;;5115301;28;20172;-54
2021/12/24 02:59:06;;;;;;;15.07;9.32;;;8.70;99.90;;;;;;5115465;28;20256;-53
2021/12/24 03:01:37;;;;;;;17.38;9.13;;;8.80;99.90;;;;;;5115415;28;20165;-53
2021/12/24 03:04:04;;;;;;;17.50;10.85;;;8.70;99.90;;;;;;5115361;28;20180;-53
2021/12/24 03:06:34;;;;;;;17.45;10.25;;;8.70;99.90;;;;;;5115063;28;20168;-51
2021/12/24 03:09:02;;;;;;;14.45;9.77;;;8.80;99.90;;;;;;5114945;28;20188;-51
2021/12/24 03:11:28;;;;;;;17.10;9.63;;;8.80;99.90;;;;;;5115093;28;20208;-51
2021/12/24 03:13:54;;;;;;;19.15;10.65;;;8.80;99.90;;;;;;5114983;28;20172;-53
2021/12/24 03:16:20;;;;;;;17.67;10.25;;;8.70;99.90;;;;;;5114876;28;20669;-52
2021/12/24 03:18:47;;;;;;;17.08;8.40;;;8.70;99.90;;;;;;5115036;28;20243;-52
2021/12/24 03:21:17;;;;;;;16.55;10.35;;;8.80;99.90;;;;;;5114814;28;20644;-52
2021/12/24 03:24:34;;;;;;;17.40;9.45;;;8.70;99.90;;;;;;5114967;28;20180;-52
2021/12/24 03:26:37;;;;;;;12.27;8.25;;;8.80;99.90;;;;;;5114433;28;20176;-53
2021/12/24 03:29:04;;;;;;;11.95;9.02;;;8.80;99.90;;;;;;5113995;28;20207;-53
2021/12/24 03:31:30;;;;;;;15.38;10.30;;;8.70;99.90;;;;;;5114650;28;20153;-53
2021/12/24 03:33:55;;;;;;;14.93;10.05;;;8.70;99.90;;;;;;5114804;28;20187;-54
2021/12/24 03:36:22;;;;;;;19.42;11.25;;;8.70;99.90;;;;;;5114753;28;20218;-54
2021/12/24 03:38:48;;;;;;;14.50;9.65;;;8.70;99.90;;;;;;5096103;28;20292;-54
2021/12/24 03:41:14;;;;;;;17.45;11.13;;;8.70;99.90;;;;;;5114360;28;20309;-54
2021/12/24 03:43:40;;;;;;;17.33;9.60;;;8.70;99.90;;;;;;5114370;28;20169;-54
2021/12/24 03:46:09;;;;;;;19.35;11.30;;;8.70;99.90;;;;;;5114385;28;20160;-54
2021/12/24 03:48:49;;;;;;;18.23;10.05;;;8.70;99.90;;;;;;5114261;28;20153;-54
2021/12/24 03:56:29;;;;;;;13.32;9.73;;;8.70;99.90;;;;;;5114644;28;20181;-55
2021/12/24 03:58:54;;;;;;;15.82;10.57;;;8.70;99.90;;;;;;5114394;28;20217;-55
2021/12/24 04:01:20;;;;;;;20.27;11.30;;;8.70;99.90;;;;;;5113985;28;20559;-55
2021/12/24 04:03:46;;;;;;;16.00;9.73;;;8.70;99.90;;;;;;5113931;28;20168;-54
2021/12/24 04:06:11;;;;;;;12.40;8.75;;;8.70;99.90;;;;;;5113921;28;20169;-54
2021/12/24 04:08:37;;;;;;;22.25;11.65;;;8.70;99.90;;;;;;5113953;28;20263;-54
2021/12/24 04:11:04;;;;;;;16.85;10.85;;;8.70;99.90;;;;;;5113640;28;20220;-54
2021/12/24 04:13:31;;;;;;;18.00;10.13;;;8.70;99.90;;;;;;5114023;28;20176;-54
2021/12/24 04:15:56;;;;;;;16.70;11.52;;;8.70;99.90;;;;;;5114097;28;20165;-54
2021/12/24 04:26:27;;;;;;;18.60;10.07;;;8.70;99.90;;;;;;5114073;28;20174;-53
2021/12/24 04:28:53;;;;;;;13.10;9.50;;;8.70;99.90;;;;;;5113415;28;20658;-54
2021/12/24 04:31:25;;;;;;;19.30;10.75;;;8.80;99.90;;;;;;5113498;28;20638;-54
2021/12/24 04:33:51;;;;;;;20.45;11.02;;;8.70;99.90;;;;;;5113558;28;20169;-54
2021/12/24 04:36:51;;;;;;;19.25;10.15;;;8.70;99.90;;;;;;5113568;28;20168;-54
2021/12/24 05:03:43;;;;;;;21.67;10.95;;;8.80;99.90;;;;;;5113100;28;20290;-54
2021/12/24 05:06:51;;;;;;;17.20;11.02;;;8.80;99.90;;;;;;5112809;28;20628;-53
2021/12/24 05:09:08;;;;;;;18.88;10.98;;;8.80;99.90;;;;;;5109448;28;20182;-54
2021/12/24 05:11:34;;;;;;;20.98;11.90;;;8.80;99.90;;;;;;5112625;28;20212;-54
2021/12/24 05:14:00;;;;;;;18.70;10.65;;;8.80;99.90;;;;;;5112930;28;20266;-53
2021/12/24 05:16:37;;;;;;;22.48;10.65;;;8.90;99.90;;;;;;5113086;28;20671;-54
2021/12/24 05:21:47;;;;;;;24.88;11.88;;;8.80;99.90;;;;;;5112657;28;20531;-54
2021/12/24 05:24:16;;;;;;;21.23;10.98;;;8.80;99.90;;;;;;5112596;28;20180;-54
2021/12/24 05:26:51;;;;;;;21.65;10.73;;;8.90;99.90;;;;;;5112816;28;20229;-53
2021/12/24 05:29:17;;;;;;;30.45;12.70;;;8.80;99.90;;;;;;5112547;28;20172;-53
2021/12/24 05:31:44;;;;;;;18.52;11.05;;;8.90;99.90;;;;;;5112420;28;20165;-54
2021/12/24 05:34:09;;;;;;;19.77;11.43;;;8.80;99.90;;;;;;5112467;28;20204;-53
2021/12/24 05:36:35;;;;;;;19.17;11.52;;;8.90;99.90;;;;;;5112665;28;20239;-53
2021/12/24 05:39:02;;;;;;;20.58;12.20;;;8.90;99.90;;;;;;5112389;28;20247;-53
2021/12/24 05:41:29;;;;;;;27.55;14.85;;;8.90;99.90;;;;;;5112893;28;20161;-53
2021/12/24 05:43:54;;;;;;;24.77;12.88;;;8.90;99.90;;;;;;5112718;28;20165;-53
2021/12/24 05:46:20;;;;;;;24.73;11.90;;;8.90;99.90;;;;;;5112599;28;20366;-53
2021/12/24 05:48:46;;;;;;;22.60;13.43;;;8.90;99.90;;;;;;5112346;28;20699;-53
2021/12/24 05:51:11;;;;;;;25.25;15.77;;;8.90;99.90;;;;;;5112608;28;20240;-51
2021/12/24 05:53:38;;;;;;;25.17;14.18;;;8.90;99.90;;;;;;5116473;28;20157;-53
2021/12/24 05:56:04;;;;;;;30.50;15.40;;;8.90;99.90;;;;;;5116537;28;20180;-54
2021/12/24 05:58:30;;;;;;;26.58;15.77;;;8.90;99.90;;;;;;5116555;28;20646;-52
2021/12/24 06:00:57;;;;;;;27.10;15.05;;;8.90;99.90;;;;;;5116611;28;20161;-53
2021/12/24 06:03:22;;;;;;;22.67;12.95;;;8.90;99.90;;;;;;5116078;28;20169;-53
2021/12/24 06:05:48;;;;;;;35.65;19.27;;;8.90;99.90;;;;;;5116165;28;20161;-52
2021/12/24 06:08:14;;;;;;;27.35;17.88;;;8.90;99.90;;;;;;5116172;28;20217;-54
2021/12/24 06:10:41;;;;;;;28.92;16.00;;;8.90;99.90;;;;;;5116117;28;20213;-52
2021/12/24 06:13:07;;;;;;;26.30;12.73;;;8.90;99.90;;;;;;5116378;28;20234;-53
2021/12/24 06:15:41;;;;;;;21.10;14.10;;;8.90;99.90;;;;;;5115981;28;20602;-53
2021/12/24 06:18:28;;;;;;;22.38;13.02;;;8.90;99.90;;;;;;5097726;28;20208;-53
2021/12/24 06:21:00;;;;;;;19.65;11.85;;;8.90;99.90;;;;;;5115942;28;20179;-53
2021/12/24 06:23:27;;;;;;;24.27;11.65;;;8.90;99.90;;;;;;5116238;28;20165;-53
2021/12/24 06:25:55;;;;;;;25.08;11.98;;;8.90;99.90;;;;;;5116049;28;20173;-53
2021/12/24 06:28:22;;;;;;;25.63;14.52;;;8.90;99.90;;;;;;5115649;28;20168;-53
2021/12/24 06:30:48;;;;;;;26.17;12.13;;;8.90;99.90;;;;;;5116014;28;20180;-53
2021/12/24 06:33:14;;;;;;;27.25;13.65;;;8.90;99.90;;;;;;5115763;28;20196;-53
2021/12/24 06:35:40;;;;;;;31.67;15.80;;;8.90;99.90;;;;;;5115607;28;20208;-53
2021/12/24 06:38:06;;;;;;;17.20;9.07;;;8.90;99.90;;;;;;5115539;28;20206;-53
2021/12/24 06:40:32;;;;;;;27.92;16.15;;;8.90;99.90;;;;;;5115697;28;20530;-53
2021/12/24 06:42:58;;;;;;;26.05;14.20;;;8.90;99.90;;;;;;5115678;28;20176;-51
2021/12/24 06:45:24;;;;;;;23.85;12.38;;;8.80;99.90;;;;;;5115612;28;20161;-53
2021/12/24 06:47:54;;;;;;;28.88;14.52;;;8.90;99.90;;;;;;5115622;28;20168;-53
2021/12/24 06:50:21;;;;;;;16.40;10.13;;;8.80;99.90;;;;;;5115543;28;20164;-53
2021/12/24 06:52:46;;;;;;;23.40;13.07;;;8.90;99.90;;;;;;5115192;28;20620;-54
2021/12/24 06:55:13;;;;;;;31.15;14.73;;;8.90;99.90;;;;;;5115234;28;20171;-51
2021/12/24 06:57:40;;;;;;;26.15;14.60;;;8.90;99.90;;;;;;5115140;28;20210;-51
2021/12/24 07:00:09;;;;;;;31.55;13.68;;;8.90;99.90;;;;;;5115144;28;20247;-51
2021/12/24 07:02:35;;;;;;;19.20;10.73;;;8.90;99.90;;;;;;5114646;28;20624;-51
2021/12/24 07:05:00;;;;;;;22.27;13.05;;;8.80;99.90;;;;;;5114368;28;20168;-51
2021/12/24 07:07:26;;;;;;;26.42;13.90;;;8.90;99.90;;;;;;5115411;28;20176;-52
2021/12/24 07:09:51;;;;;;;34.10;18.17;;;8.90;99.90;;;;;;5114700;28;20167;-51
2021/12/24 07:12:17;;;;;;;25.55;15.25;;;8.80;99.90;;;;;;5096590;28;20539;-51
2021/12/24 07:14:43;;;;;;;24.75;14.02;;;8.80;99.90;;;;;;5115099;28;20172;-51
2021/12/24 07:17:09;;;;;;;34.70;17.58;;;8.80;99.90;;;;;;5114672;28;20180;-51
2021/12/24 07:19:35;;;;;;;31.73;17.08;;;8.80;99.90;;;;;;5114658;28;20568;-51
2021/12/24 07:22:02;;;;;;;25.92;14.02;;;8.80;99.90;;;;;;5114669;28;20204;-51
2021/12/24 07:24:28;;;;;;;22.38;12.77;;;8.80;99.90;;;;;;5115231;28;20192;-52
2021/12/24 07:26:54;;;;;;;34.45;16.50;;;8.80;99.90;;;;;;5114639;28;20219;-51
2021/12/24 07:29:20;;;;;;;23.13;13.77;;;8.80;99.90;;;;;;5114544;28;20616;-52
2021/12/24 07:31:46;;;;;;;34.92;17.40;;;8.70;99.90;;;;;;5114518;28;20169;-52
2021/12/24 07:34:11;;;;;;;27.13;13.00;;;8.70;99.90;;;;;;5114530;28;20624;-52
2021/12/24 07:36:37;;;;;;;31.85;15.85;;;8.70;99.90;;;;;;5114369;28;20180;-51
2021/12/24 07:39:03;;;;;;;37.28;20.70;;;8.70;99.90;;;;;;5114633;28;20176;-52
2021/12/24 07:41:29;;;;;;;38.65;19.20;;;8.60;99.90;;;;;;5114388;28;20669;-52
2021/12/24 07:43:56;;;;;;;32.30;18.05;;;8.60;99.90;;;;;;5114774;28;20181;-53
2021/12/24 07:46:24;;;;;;;28.33;15.13;;;8.70;99.90;;;;;;5114265;28;20209;-53
2021/12/24 07:48:49;;;;;;;33.00;17.25;;;8.60;99.90;;;;;;5114169;28;20595;-53
2021/12/24 07:54:02;;;;;;;22.58;11.32;;;8.70;99.90;;;;;;5114393;28;20217;-53
2021/12/24 07:56:29;;;;;;;24.27;14.20;;;8.70;99.90;;;;;;5114625;28;20169;-53
2021/12/24 07:58:55;;;;;;;27.52;16.27;;;8.70;99.90;;;;;;5114117;28;20566;-53
2021/12/24 08:01:25;;;;;;;27.80;15.40;;;8.60;99.90;;;;;;5113953;28;20203;-53
2021/12/24 08:03:52;;;;;;;27.48;14.40;;;8.70;99.90;;;;;;5113995;28;20160;-53
2021/12/24 08:06:19;;;;;;;34.03;14.07;;;8.70;99.90;;;;;;5095505;28;20225;-53
2021/12/24 08:08:45;;;;;;;27.65;13.90;;;8.70;99.90;;;;;;5113723;28;20213;-53
2021/12/24 08:11:10;;;;;;;24.15;12.35;;;8.70;99.90;;;;;;5113594;28;20228;-53
2021/12/24 08:13:36;;;;;;;25.42;12.63;;;8.70;99.90;;;;;;5113733;28;20572;-53
2021/12/24 08:16:01;;;;;;;30.13;12.85;;;8.70;99.90;;;;;;5113479;28;20180;-53
2021/12/24 08:18:27;;;;;;;29.10;14.52;;;8.70;99.90;;;;;;5113731;28;20212;-53
2021/12/24 08:20:52;;;;;;;30.42;12.73;;;8.80;99.90;;;;;;5113525;28;20165;-53
2021/12/24 08:23:19;;;;;;;28.75;11.50;;;8.70;99.90;;;;;;5113758;28;20199;-53
2021/12/24 08:25:44;;;;;;;27.25;12.88;;;8.80;99.90;;;;;;5113416;28;20168;-53
2021/12/24 08:28:10;;;;;;;26.58;12.52;;;8.80;99.90;;;;;;5113403;28;20161;-53
2021/12/24 08:30:36;;;;;;;28.75;12.82;;;8.80;99.90;;;;;;5113387;28;20193;-53
2021/12/24 08:33:01;;;;;;;28.58;12.20;;;8.80;99.90;;;;;;5113164;28;20196;-53
2021/12/24 08:35:28;;;;;;;23.08;11.85;;;8.80;99.90;;;;;;5113559;28;20655;-53
2021/12/24 08:37:55;;;;;;;24.77;11.18;;;8.80;99.90;;;;;;5113721;28;20230;-53
2021/12/24 08:40:20;;;;;;;19.40;9.32;;;8.80;99.90;;;;;;5094828;28;20204;-53
2021/12/24 08:42:46;;;;;;;19.67;10.52;;;8.80;99.90;;;;;;5112931;28;20629;-53
2021/12/24 08:45:13;;;;;;;28.20;11.15;;;8.80;99.90;;;;;;5112898;28;20160;-53
2021/12/24 08:47:39;;;;;;;21.35;10.52;;;8.80;99.90;;;;;;5113340;28;20173;-53
2021/12/24 08:50:07;;;;;;;20.98;9.63;;;8.80;99.90;;;;;;5113193;28;20214;-53
2021/12/24 08:52:33;;;;;;;26.83;11.20;;;8.90;99.90;;;;;;5112601;28;20181;-52
2021/12/24 08:54:58;;;;;;;21.27;10.88;;;8.90;99.90;;;;;;5112904;28;20305;-51
2021/12/24 08:57:24;;;;;;;27.63;10.57;;;9.80;99.90;;;;;;5112737;28;20196;-53
2021/12/24 08:59:50;;;;;;;17.73;9.43;;;8.90;99.90;;;;;;5112832;28;20164;-53
2021/12/24 09:02:16;;;;;;;21.55;10.15;;;8.90;99.90;;;;;;5112779;28;20193;-53
2021/12/24 09:04:42;;;;;;;19.23;10.68;;;8.90;99.90;;;;;;5112732;28;20169;-54
2021/12/24 09:07:07;;;;;;;22.58;9.52;;;8.90;99.90;;;;;;5112394;28;20213;-53
2021/12/24 09:09:33;;;;;;;26.77;9.90;;;8.90;99.90;;;;;;5112622;28;20577;-53
2021/12/24 09:11:59;;;;;;;21.13;9.15;;;9.00;99.90;;;;;;5112530;28;20252;-53
2021/12/24 09:14:25;;;;;;;18.92;8.25;;;9.00;99.90;;;;;;5113009;28;20536;-52
2021/12/24 09:16:51;;;;;;;14.73;7.55;;;9.00;99.90;;;;;;5112208;28;20172;-53
2021/12/24 09:19:22;;;;;;;19.08;9.20;;;9.00;99.90;;;;;;5112327;28;20168;-53
2021/12/24 09:21:48;;;;;;;20.02;9.02;;;9.00;99.90;;;;;;5112221;28;20179;-53
2021/12/24 09:24:13;;;;;;;22.42;8.93;;;9.10;99.90;;;;;;5112315;28;20243;-53
2021/12/24 09:26:39;;;;;;;22.00;8.40;;;9.00;99.90;;;;;;5111585;28;20588;-53
2021/12/24 09:29:07;;;;;;;26.15;8.43;;;9.10;99.90;;;;;;5112420;28;20168;-53
2021/12/24 09:31:34;;;;;;;20.00;9.00;;;9.10;99.90;;;;;;5112009;28;20221;-53
2021/12/24 09:33:59;;;;;;;22.08;8.93;;;9.10;99.90;;;;;;5093983;28;20194;-53
2021/12/24 09:36:28;;;;;;;18.73;7.80;;;9.10;99.90;;;;;;5112360;28;20160;-53
2021/12/24 09:38:56;;;;;;;14.13;8.00;;;9.10;99.90;;;;;;5112517;28;20275;-53
2021/12/24 09:41:23;;;;;;;15.10;8.20;;;9.10;99.90;;;;;;5112036;28;20221;-53
2021/12/24 09:43:49;;;;;;;25.55;9.23;;;9.10;99.90;;;;;;5111782;28;20196;-54
2021/12/24 09:46:15;;;;;;;17.05;6.45;;;9.10;99.90;;;;;;5111997;28;20215;-52
2021/12/24 09:48:41;;;;;;;20.05;7.10;;;9.10;99.90;;;;;;5106699;28;20181;-53
2021/12/24 09:51:07;;;;;;;17.48;8.35;;;9.10;99.90;;;;;;5111692;28;20195;-53
2021/12/24 09:53:33;;;;;;;18.50;7.80;;;9.10;99.90;;;;;;5112054;28;20165;-53
2021/12/24 09:55:58;;;;;;;25.67;8.68;;;9.10;99.90;;;;;;5112236;28;20165;-54
2021/12/24 09:58:24;;;;;;;19.35;8.63;;;9.10;99.90;;;;;;5112546;28;20207;-53
2021/12/24 10:00:50;;;;;;;21.33;8.50;;;9.10;99.90;;;;;;5112184;28;20200;-54
2021/12/24 10:03:35;;;;;;;19.70;8.25;;;9.10;99.90;;;;;;5112044;28;20536;-54
2021/12/24 10:06:02;;;;;;;15.85;7.40;;;9.10;99.90;;;;;;5112119;28;20530;-53
2021/12/24 10:08:29;;;;;;;17.73;9.15;;;9.20;99.90;;;;;;5094447;28;20161;-53
2021/12/24 10:11:05;;;;;;;17.38;7.65;;;9.20;99.90;;;;;;5111593;28;20702;-54
2021/12/24 10:13:37;;;;;;;16.63;8.13;;;9.20;99.90;;;;;;5112175;28;20218;-54
2021/12/24 10:16:07;;;;;;;15.43;8.43;;;9.20;99.90;;;;;;5111982;28;20196;-53
2021/12/24 10:18:48;;;;;;;23.80;9.23;;;9.30;99.90;;;;;;5112242;28;20256;-53
2021/12/24 10:21:19;;;;;;;23.30;9.20;;;9.30;99.90;;;;;;5112442;28;20247;-53
2021/12/24 10:24:04;;;;;;;19.63;9.70;;;9.30;99.90;;;;;;5112233;28;20180;-54
2021/12/24 10:26:31;;;;;;;19.63;6.90;;;9.30;99.90;;;;;;5111869;28;20529;-54
2021/12/24 10:29:15;;;;;;;17.40;7.93;;;9.30;99.90;;;;;;5112212;28;20319;-54
2021/12/24 10:32:10;;;;;;;19.77;8.48;;;9.40;99.90;;;;;;5112120;28;20169;-53
2021/12/24 10:34:36;;;;;;;19.30;7.85;;;9.30;99.90;;;;;;5098199;28;20181;-51
2021/12/24 10:37:06;;;;;;;18.65;7.95;;;9.40;99.90;;;;;;5111749;28;20188;-53
2021/12/24 10:39:38;;;;;;;23.58;7.40;;;9.40;99.90;;;;;;5115760;28;20196;-53
2021/12/24 10:42:12;;;;;;;20.63;7.25;;;9.40;99.90;;;;;;5115226;28;20176;-51
2021/12/24 10:44:39;;;;;;;16.73;7.38;;;9.40;99.90;;;;;;5115282;28;20172;-50
2021/12/24 10:47:15;;;;;;;18.50;7.90;;;9.50;99.90;;;;;;5115428;28;20168;-52
2021/12/24 10:49:56;;;;;;;20.50;8.13;;;9.50;99.90;;;;;;5115484;28;20160;-50
2021/12/24 10:55:06;;;;;;;18.90;7.55;;;9.60;99.90;;;;;;5114901;28;20161;-51
2021/12/24 10:57:33;;;;;;;13.75;6.70;;;9.60;99.90;;;;;;5115186;28;20188;-52
2021/12/24 11:00:04;;;;;;;16.63;8.07;;;9.50;99.90;;;;;;5115179;28;20164;-49
2021/12/24 11:02:36;;;;;;;15.02;6.72;;;9.50;99.90;;;;;;5115356;28;20169;-51
2021/12/24 11:05:04;;;;;;;18.65;6.80;;;9.50;99.90;;;;;;5114991;28;20642;-48
2021/12/24 11:07:41;;;;;;;16.40;7.90;;;9.50;99.90;;;;;;5114714;28;20168;-51
2021/12/24 11:10:14;;;;;;;35.55;9.25;;;9.50;99.90;;;;;;5114692;28;20206;-51
2021/12/24 11:12:49;;;;;;;18.73;7.63;;;9.50;99.90;;;;;;5114871;28;20183;-52
2021/12/24 11:15:23;;;;;;;18.25;7.78;;;9.50;99.90;;;;;;5115045;28;20172;-49
2021/12/24 11:17:52;;;;;;;18.73;7.95;;;9.50;99.90;;;;;;5114247;28;20199;-48
2021/12/24 11:20:18;;;;;;;16.85;7.32;;;9.50;99.90;;;;;;5114769;28;20163;-52
2021/12/24 11:23:20;;;;;;;16.98;8.80;;;9.50;99.90;;;;;;5114906;28;20179;-49
2021/12/24 11:25:51;;;;;;;25.10;8.55;;;9.50;99.90;;;;;;5012076;28;20171;-50
2021/12/24 11:28:18;;;;;;;16.17;7.38;;;9.50;99.90;;;;;;5098322;28;20545;-53
2021/12/24 11:30:52;;;;;;;23.83;8.73;;;9.50;99.90;;;;;;5114703;28;20289;-49
2021/12/24 11:33:26;;;;;;;15.18;7.30;;;9.50;99.90;;;;;;5114189;28;20586;-50
2021/12/24 11:35:53;;;;;;;20.13;7.82;;;9.60;99.90;;;;;;5114554;28;20173;-49
2021/12/24 11:38:22;;;;;;;20.88;8.18;;;9.70;99.90;;;;;;5114246;28;20204;-50
2021/12/24 11:40:49;;;;;;;13.88;7.60;;;9.70;99.90;;;;;;5114268;28;20646;-53
2021/12/24 11:43:17;;;;;;;18.88;7.28;;;9.70;99.90;;;;;;5096025;28;20508;-49
2021/12/24 11:45:43;;;;;;;19.90;7.68;;;9.80;99.90;;;;;;5114023;28;20639;-51
2021/12/24 11:48:08;;;;;;;17.58;8.25;;;9.80;99.90;;;;;;5114155;28;20729;-52
2021/12/24 11:50:35;;;;;;;28.95;7.30;;;9.90;99.90;;;;;;5113112;28;20172;-52
2021/12/24 11:53:07;;;;;;;17.95;6.82;;;9.90;99.90;;;;;;5114153;28;20161;-51
2021/12/24 11:55:39;;;;;;;15.02;6.07;;;10.10;99.90;;;;;;5095518;28;20576;-51
2021/12/24 11:58:14;;;;;;;14.55;6.72;;;10.10;99.90;;;;;;5113639;28;20219;-49
2021/12/24 12:00:41;;;;;;;22.13;7.15;;;10.10;99.90;;;;;;5113728;28;20164;-52
2021/12/24 12:03:09;;;;;;;14.95;5.85;;;10.10;99.90;;;;;;5113788;28;20168;-50
2021/12/24 12:05:38;;;;;;;25.30;7.28;;;10.10;99.90;;;;;;5114098;28;20591;-52
2021/12/24 12:08:37;;;;;;;14.13;6.70;;;10.10;99.90;;;;;;5114041;28;20625;-51
2021/12/24 12:11:06;;;;;;;15.65;6.57;;;10.10;99.90;;;;;;5106993;28;20357;-51
2021/12/24 12:13:54;;;;;;;13.02;6.20;;;10.10;99.90;;;;;;5113683;28;20176;-50
2021/12/24 12:16:29;;;;;;;21.08;7.03;;;10.00;99.90;;;;;;5113517;28;20176;-50
2021/12/24 12:19:12;;;;;;;21.67;6.63;;;10.00;99.90;;;;;;5113735;28;20211;-49
2021/12/24 12:21:43;;;;;;;17.60;8.13;;;10.00;99.90;;;;;;5113774;28;20184;-51
2021/12/24 12:26:41;;;;;;;18.40;6.38;;;10.00;99.90;;;;;;5113441;28;20670;-50
2021/12/24 12:29:28;;;;;;;14.60;5.55;;;10.00;99.90;;;;;;5113622;28;20201;-52
2021/12/24 12:32:24;;;;;;;20.70;7.20;;;10.00;99.90;;;;;;5113353;28;20172;-52
2021/12/24 12:34:53;;;;;;;16.20;6.55;;;10.00;99.90;;;;;;5113232;28;20290;-51
2021/12/24 12:37:20;;;;;;;16.25;6.18;;;10.00;99.90;;;;;;5112991;28;20192;-49
2021/12/24 12:39:49;;;;;;;13.48;6.07;;;9.90;99.90;;;;;;5113192;28;20631;-49
2021/12/24 12:42:17;;;;;;;18.38;6.43;;;9.90;99.90;;;;;;5113077;28;20177;-48
2021/12/24 12:44:50;;;;;;;14.57;6.10;;;9.90;99.90;;;;;;5112972;28;20183;-51
2021/12/24 12:47:22;;;;;;;15.20;5.95;;;9.90;99.90;;;;;;5113267;28;20217;-49
2021/12/24 12:49:51;;;;;;;22.35;6.97;;;9.90;99.90;;;;;;5113021;28;20285;-48
2021/12/24 12:52:31;;;;;;;16.95;6.35;;;9.90;99.90;;;;;;5112446;28;20263;-48
2021/12/24 12:54:58;;;;;;;20.65;7.55;;;9.90;99.90;;;;;;5113149;28;20168;-48
2021/12/24 12:57:31;;;;;;;20.92;7.15;;;9.90;99.90;;;;;;5112197;28;20227;-50
2021/12/24 13:00:12;;;;;;;16.70;7.55;;;9.90;99.90;;;;;;5094520;28;20161;-49
2021/12/24 13:03:06;;;;;;;20.13;9.43;;;9.90;99.90;;;;;;5111950;28;20173;-47
2021/12/24 13:05:52;;;;;;;23.85;11.30;;;9.90;99.90;;;;;;5112763;28;20172;-50
2021/12/24 13:08:21;;;;;;;14.38;5.28;;;9.90;99.90;;;;;;5112151;28;20161;-51
2021/12/24 13:11:06;;;;;;;11.95;5.75;;;9.90;99.90;;;;;;5112469;28;20224;-52
2021/12/24 13:13:41;;;;;;;18.25;7.35;;;9.90;99.90;;;;;;5112502;28;20171;-51
2021/12/24 13:16:17;;;;;;;16.98;6.43;;;9.90;99.90;;;;;;5112620;28;20203;-52
2021/12/24 13:18:47;;;;;;;17.73;7.70;;;9.80;99.90;;;;;;5111989;28;20211;-52
2021/12/24 13:23:57;;;;;;;21.38;8.70;;;9.80;99.90;;;;;;5112548;28;20176;-51
2021/12/24 13:26:24;;;;;;;15.80;7.38;;;9.80;99.90;;;;;;5112153;28;20165;-52
2021/12/24 13:29:01;;;;;;;18.75;7.75;;;9.70;99.90;;;;;;5112357;28;20173;-52
2021/12/24 13:31:29;;;;;;;20.70;7.82;;;9.70;99.90;;;;;;5112462;28;20186;-51
2021/12/24 13:33:54;;;;;;;18.20;7.93;;;9.70;99.90;;;;;;5112114;28;20169;-50
2021/12/24 13:36:22;;;;;;;16.08;6.68;;;9.70;99.90;;;;;;5111401;28;20164;-49
2021/12/24 13:38:48;;;;;;;12.00;7.03;;;9.70;99.90;;;;;;5111699;28;20219;-50
2021/12/24 13:41:13;;;;;;;18.13;7.15;;;9.60;99.90;;;;;;5112176;28;20173;-49
2021/12/24 13:43:39;;;;;;;19.85;8.35;;;9.60;99.90;;;;;;5111841;28;20168;-51
2021/12/24 13:46:09;;;;;;;16.85;7.85;;;9.60;99.90;;;;;;5112058;28;20648;-52
2021/12/24 13:54:33;;;;;;;21.42;8.48;;;10.50;99.90;;;;;;5105448;28;20708;-49
2021/12/24 13:57:02;;;;;;;21.95;7.90;;;9.60;99.90;;;;;;5112443;28;20191;-48
2021/12/24 13:59:29;;;;;;;16.67;8.98;;;9.60;99.90;;;;;;5112712;28;20168;-47
2021/12/24 14:01:55;;;;;;;21.23;8.55;;;9.50;99.90;;;;;;5112043;28;20528;-48
2021/12/24 14:04:22;;;;;;;21.02;7.95;;;9.50;99.90;;;;;;5111640;28;20620;-46
2021/12/24 14:06:51;;;;;;;22.00;8.15;;;9.50;99.90;;;;;;5112014;28;20293;-49
2021/12/24 14:09:29;;;;;;;18.35;8.10;;;9.50;99.90;;;;;;5112070;28;20160;-48
2021/12/24 14:11:55;;;;;;;19.98;8.35;;;9.50;99.90;;;;;;5111883;28;20224;-47
2021/12/24 14:14:29;;;;;;;18.80;8.55;;;9.40;99.90;;;;;;5097564;28;20173;-49
2021/12/24 14:17:34;;;;;;;20.17;8.60;;;9.40;99.90;;;;;;5116167;28;20655;-47
2021/12/24 14:22:20;;;;;;;15.73;7.32;;;9.40;99.90;;;;;;5116136;28;20161;-48
2021/12/24 14:24:57;;;;;;;20.48;8.57;;;9.40;99.90;;;;;;5115838;28;20157;-50
2021/12/24 14:27:28;;;;;;;19.30;9.27;;;9.40;99.90;;;;;;5115701;28;20165;-48
2021/12/24 14:30:00;;;;;;;19.83;8.82;;;9.40;99.90;;;;;;5115746;28;20168;-50
2021/12/24 14:32:34;;;;;;;20.70;7.80;;;9.40;99.90;;;;;;5115113;28;20203;-46
2021/12/24 14:35:27;;;;;;;21.95;8.48;;;9.40;99.90;;;;;;5097633;28;20206;-45
2021/12/24 14:38:06;;;;;;;18.48;7.07;;;9.40;99.90;;;;;;5115655;28;20200;-45